createdAt,value
2022-08-11T00:01:55.627Z,2.37
2022-08-11T00:04:25.688Z,2.60
2022-08-11T00:06:55.416Z,2.67
2022-08-11T00:09:32.312Z,2.37
2022-08-11T00:12:14.596Z,2.63
2022-08-11T00:14:42.670Z,2.70
2022-08-11T00:17:12.074Z,2.67
2022-08-11T00:20:14.733Z,2.50
2022-08-11T00:22:29.974Z,2.33
2022-08-11T00:25:02.136Z,2.40
2022-08-11T00:27:34.163Z,2.50
2022-08-11T00:30:01.134Z,2.40
2022-08-11T00:32:29.742Z,2.93
2022-08-11T00:35:54.281Z,2.80
2022-08-11T00:37:49.754Z,2.80
2022-08-11T00:40:34.689Z,2.70
2022-08-11T00:44:02.828Z,2.50
2022-08-11T00:46:42.458Z,3.00
2022-08-11T00:49:23.799Z,2.70
2022-08-11T00:52:18.586Z,2.67
2022-08-11T00:55:03.642Z,2.60
2022-08-11T00:57:51.083Z,2.43
2022-08-11T01:00:25.961Z,2.93
2022-08-11T01:03:13.352Z,2.80
2022-08-11T01:06:04.606Z,2.90
2022-08-11T01:09:33.523Z,2.73
2022-08-11T01:12:24.033Z,2.60
2022-08-11T01:15:28.501Z,2.67
2022-08-11T01:18:30.295Z,2.83
2022-08-11T01:21:14.663Z,3.00
2022-08-11T01:24:19.045Z,3.00
2022-08-11T01:27:00.720Z,2.80
2022-08-11T01:30:04.752Z,2.50
2022-08-11T01:33:00.596Z,3.13
2022-08-11T01:36:16.518Z,3.23
2022-08-11T01:38:55.777Z,2.83
2022-08-11T01:42:05.962Z,3.53
2022-08-11T01:44:45.480Z,3.10
2022-08-11T01:47:53.015Z,2.70
2022-08-11T01:50:51.436Z,3.00
2022-08-11T01:53:35.555Z,2.97
2022-08-11T01:56:39.699Z,3.10
2022-08-11T01:59:12.181Z,2.47
2022-08-11T02:02:03.747Z,2.80
2022-08-11T02:04:52.614Z,2.80
2022-08-11T02:07:26.858Z,2.73
2022-08-11T02:10:02.097Z,2.50
2022-08-11T02:12:53.149Z,2.93
2022-08-11T02:15:44.879Z,2.77
2022-08-11T02:18:48.165Z,3.20
2022-08-11T02:21:44.110Z,2.77
2022-08-11T02:24:24.249Z,3.20
2022-08-11T02:27:00.885Z,2.97
2022-08-11T02:29:42.442Z,3.10
2022-08-11T02:32:42.483Z,2.90
2022-08-11T02:35:27.219Z,2.97
2022-08-11T02:38:28.023Z,3.57
2022-08-11T02:41:30.079Z,2.97
2022-08-11T02:44:09.779Z,2.80
2022-08-11T02:46:56.422Z,3.10
2022-08-11T02:50:00.003Z,3.03
2022-08-11T02:52:37.615Z,3.03
2022-08-11T02:55:50.863Z,2.80
2022-08-11T02:58:28.150Z,2.90
2022-08-11T03:01:03.382Z,3.03
2022-08-11T03:03:44.196Z,3.57
2022-08-11T03:06:24.760Z,3.13
2022-08-11T03:09:09.629Z,3.07
2022-08-11T03:12:01.598Z,3.63
2022-08-11T03:15:20.714Z,3.33
2022-08-11T03:18:03.857Z,3.43
2022-08-11T03:20:41.569Z,3.43
2022-08-11T03:23:30.862Z,3.33
2022-08-11T03:26:31.873Z,3.17
2022-08-11T03:29:04.766Z,2.93
2022-08-11T03:31:46.700Z,3.40
2022-08-11T03:34:21.750Z,2.83
2022-08-11T03:37:41.339Z,3.40
2022-08-11T03:40:13.668Z,3.50
2022-08-11T03:43:03.482Z,3.47
2022-08-11T03:45:57.236Z,3.30
2022-08-11T03:48:48.518Z,3.20
2022-08-11T03:51:44.681Z,3.17
2022-08-11T03:54:48.237Z,3.20
2022-08-11T03:57:28.420Z,3.30
2022-08-11T04:00:08.933Z,3.60
2022-08-11T04:02:57.153Z,3.00
2022-08-11T04:06:02.351Z,3.60
2022-08-11T04:08:47.586Z,3.10
2022-08-11T04:11:36.706Z,3.53
2022-08-11T04:14:53.729Z,3.30
2022-08-11T04:17:47.831Z,3.37
2022-08-11T04:20:42.731Z,3.67
2022-08-11T04:24:35.058Z,3.30
2022-08-11T04:26:34.175Z,3.30
2022-08-11T04:30:03.432Z,3.30
2022-08-11T04:33:06.746Z,3.37
2022-08-11T04:36:02.301Z,3.43
2022-08-11T04:38:50.078Z,3.37
2022-08-11T04:42:12.894Z,3.63
2022-08-11T04:44:57.794Z,4.03
2022-08-11T04:48:10.515Z,3.90
2022-08-11T04:51:20.284Z,3.70
2022-08-11T04:54:17.029Z,4.57
2022-08-11T04:57:05.016Z,3.90
2022-08-11T05:00:42.612Z,4.50
2022-08-11T05:03:40.124Z,4.40
2022-08-11T05:06:43.924Z,4.37
2022-08-11T05:09:10.439Z,5.20
2022-08-11T05:12:02.056Z,4.97
2022-08-11T05:15:20.033Z,5.03
2022-08-11T05:18:25.807Z,4.57
2022-08-11T05:21:14.314Z,4.17
2022-08-11T05:24:06.018Z,3.87
2022-08-11T05:27:03.135Z,4.00
2022-08-11T05:30:07.500Z,4.00
2022-08-11T05:33:01.443Z,4.03
2022-08-11T05:36:00.060Z,4.37
2022-08-11T05:38:45.750Z,4.47
2022-08-11T05:41:32.200Z,4.37
2022-08-11T05:44:22.630Z,4.87
2022-08-11T05:47:09.028Z,4.97
2022-08-11T05:49:55.089Z,3.70
2022-08-11T05:52:45.368Z,4.40
2022-08-11T05:55:34.204Z,3.90
2022-08-11T05:58:07.064Z,5.30
2022-08-11T06:00:43.415Z,4.50
2022-08-11T06:03:10.977Z,4.40
2022-08-11T06:05:43.534Z,4.70
2022-08-11T06:08:12.467Z,4.43
2022-08-11T06:10:42.165Z,4.37
2022-08-11T06:13:10.189Z,4.80
2022-08-11T06:15:51.925Z,4.17
2022-08-11T06:18:19.729Z,4.17
2022-08-11T06:20:55.139Z,3.57
2022-08-11T06:23:24.046Z,3.77
2022-08-11T06:25:52.661Z,3.70
2022-08-11T06:28:21.958Z,3.67
2022-08-11T06:30:49.429Z,3.50
2022-08-11T06:33:30.103Z,3.83
2022-08-11T06:36:14.781Z,3.20
2022-08-11T06:39:08.590Z,3.50
2022-08-11T06:41:41.343Z,3.20
2022-08-11T06:44:13.479Z,3.57
2022-08-11T06:46:50.932Z,3.03
2022-08-11T06:49:39.355Z,3.37
2022-08-11T06:52:41.207Z,3.47
2022-08-11T06:55:55.493Z,3.00
2022-08-11T06:58:49.743Z,3.37
2022-08-11T07:01:23.049Z,3.57
2022-08-11T07:04:00.211Z,3.40
2022-08-11T07:06:51.174Z,3.77
2022-08-11T07:10:03.958Z,3.30
2022-08-11T07:12:51.886Z,3.30
2022-08-11T07:16:11.086Z,3.30
2022-08-11T07:18:53.943Z,3.87
2022-08-11T07:22:02.984Z,3.30
2022-08-11T07:25:02.590Z,3.03
2022-08-11T07:27:57.490Z,3.20
2022-08-11T07:30:26.088Z,3.80
2022-08-11T07:32:57.228Z,3.33
2022-08-11T07:35:33.200Z,3.03
2022-08-11T07:38:07.169Z,3.60
2022-08-11T07:40:35.592Z,3.30
2022-08-11T07:43:04.109Z,3.80
2022-08-11T07:45:49.998Z,3.50
2022-08-11T07:48:36.867Z,3.60
2022-08-11T07:51:22.840Z,3.33
2022-08-11T07:53:58.334Z,3.33
2022-08-11T07:56:54.492Z,3.70
2022-08-11T08:00:00.532Z,3.50
2022-08-11T08:02:46.931Z,3.30
2022-08-11T08:05:34.005Z,3.50
2022-08-11T08:08:19.830Z,2.97
2022-08-11T08:11:05.992Z,3.20
2022-08-11T08:13:52.679Z,3.50
2022-08-11T08:16:39.233Z,3.40
2022-08-11T08:19:06.269Z,3.20
2022-08-11T08:21:33.433Z,3.13
2022-08-11T08:24:00.924Z,3.13
2022-08-11T08:26:51.645Z,3.03
2022-08-11T08:29:39.372Z,3.20
2022-08-11T08:32:11.105Z,3.67
2022-08-11T08:34:40.194Z,3.40
2022-08-11T08:37:16.284Z,3.27
2022-08-11T08:39:55.782Z,3.20
2022-08-11T08:42:29.475Z,3.30
2022-08-11T08:45:15.813Z,3.27
2022-08-11T08:47:51.141Z,2.90
2022-08-11T08:50:27.993Z,3.17
2022-08-11T08:52:58.209Z,3.10
2022-08-11T08:55:27.975Z,3.07
2022-08-11T08:57:55.922Z,3.30
2022-08-11T09:00:23.866Z,3.20
2022-08-11T09:02:52.067Z,2.90
2022-08-11T09:05:21.075Z,3.07
2022-08-11T09:07:51.048Z,2.50
2022-08-11T09:10:19.820Z,3.33
2022-08-11T09:12:48.071Z,2.85
2022-08-11T09:15:19.597Z,2.78
2022-08-11T09:17:50.173Z,3.00
2022-08-11T09:20:25.414Z,2.77
2022-08-11T09:24:07.745Z,2.53
2022-08-11T09:26:22.022Z,3.03
2022-08-11T09:28:58.799Z,2.70
2022-08-11T09:31:26.752Z,2.70
2022-08-11T09:33:55.424Z,2.38
2022-08-11T09:36:41.248Z,2.42
2022-08-11T09:39:27.665Z,2.88
2022-08-11T09:42:00.415Z,2.40
2022-08-11T09:44:49.223Z,3.00
2022-08-11T09:47:23.537Z,2.42
2022-08-11T09:49:53.578Z,2.60
2022-08-11T09:52:23.468Z,2.60
2022-08-11T09:54:52.228Z,2.60
2022-08-11T09:57:41.277Z,2.78
2022-08-11T10:00:13.244Z,2.47
2022-08-11T10:02:49.837Z,2.30
2022-08-11T10:05:37.852Z,2.78
2022-08-11T10:08:07.086Z,2.50
2022-08-11T10:10:37.542Z,2.60
2022-08-11T10:13:43.949Z,2.58
2022-08-11T10:16:15.675Z,2.85
2022-08-11T10:18:52.815Z,2.60
2022-08-11T10:21:28.159Z,2.67
2022-08-11T10:24:16.802Z,2.78
2022-08-11T10:26:54.566Z,2.42
2022-08-11T10:29:50.017Z,2.60
2022-08-11T10:32:59.292Z,2.58
2022-08-11T10:35:31.388Z,2.47
2022-08-11T10:38:06.333Z,2.60
2022-08-11T10:40:37.919Z,2.17
2022-08-11T10:43:10.213Z,2.53
2022-08-11T10:45:56.924Z,2.33
2022-08-11T10:48:26.663Z,2.47
2022-08-11T10:51:15.258Z,2.55
2022-08-11T10:54:07.207Z,2.30
2022-08-11T10:56:58.493Z,4.70
2022-08-11T10:59:28.033Z,2.30
2022-08-11T11:01:55.370Z,2.22
2022-08-11T11:04:39.705Z,2.25
2022-08-11T11:07:13.854Z,2.38
2022-08-11T11:09:52.617Z,2.20
2022-08-11T11:12:43.707Z,2.72
2022-08-11T11:15:30.135Z,2.58
2022-08-11T11:18:11.307Z,2.40
2022-08-11T11:21:10.401Z,2.67
2022-08-11T11:23:56.136Z,2.33
2022-08-11T11:26:56.151Z,2.47
2022-08-11T11:30:01.805Z,2.53
2022-08-11T11:32:37.701Z,2.22
2022-08-11T11:35:16.375Z,2.30
2022-08-11T11:37:58.470Z,2.20
2022-08-11T11:40:32.848Z,2.58
2022-08-11T11:43:00.944Z,2.92
2022-08-11T11:45:28.176Z,2.30
2022-08-11T11:47:59.549Z,2.50
2022-08-11T11:50:37.695Z,2.33
2022-08-11T11:53:07.169Z,2.58
2022-08-11T11:55:34.959Z,2.30
2022-08-11T11:58:23.022Z,2.53
2022-08-11T12:01:11.061Z,2.50
2022-08-11T12:03:39.452Z,2.70
2022-08-11T12:06:08.336Z,2.15
2022-08-11T12:08:36.636Z,2.60
2022-08-11T12:11:24.403Z,2.33
2022-08-11T12:13:54.310Z,2.40
2022-08-11T12:16:33.499Z,2.45
2022-08-11T12:19:05.137Z,2.63
2022-08-11T12:21:33.927Z,2.50
2022-08-11T12:24:20.410Z,2.40
2022-08-11T12:27:14.998Z,2.50
2022-08-11T12:29:35.456Z,2.50
2022-08-11T12:32:07.338Z,2.35
2022-08-11T12:34:34.118Z,2.30
2022-08-11T12:37:13.551Z,2.47
2022-08-11T12:40:49.659Z,2.38
2022-08-11T12:43:24.403Z,2.60
2022-08-11T12:46:14.958Z,2.30
2022-08-11T12:49:04.482Z,2.25
2022-08-11T12:52:13.814Z,2.75
2022-08-11T12:55:13.010Z,2.47
2022-08-11T12:58:03.794Z,2.22
2022-08-11T13:00:50.547Z,2.30
2022-08-11T13:03:38.944Z,2.28
2022-08-11T13:06:06.160Z,2.55
2022-08-11T13:08:38.053Z,2.15
2022-08-11T13:11:25.094Z,2.33
2022-08-11T13:14:15.378Z,2.20
2022-08-11T13:17:02.931Z,2.40
2022-08-11T13:19:30.525Z,2.20
2022-08-11T13:21:57.873Z,2.10
2022-08-11T13:24:24.857Z,2.38
2022-08-11T13:26:51.817Z,2.40
2022-08-11T13:29:24.124Z,2.08
2022-08-11T13:31:53.625Z,2.22
2022-08-11T13:34:21.566Z,2.20
2022-08-11T13:36:52.185Z,2.45
2022-08-11T13:39:21.272Z,2.10
2022-08-11T13:41:51.245Z,2.03
2022-08-11T13:44:24.806Z,1.88
2022-08-11T13:46:55.869Z,2.15
2022-08-11T13:49:23.237Z,2.30
2022-08-11T13:51:50.357Z,2.13
2022-08-11T13:54:21.348Z,2.13
2022-08-11T13:56:52.741Z,2.30
2022-08-11T13:59:23.005Z,2.20
2022-08-11T14:02:22.290Z,2.15
2022-08-11T14:04:56.766Z,2.33
2022-08-11T14:07:29.822Z,2.08
2022-08-11T14:09:59.132Z,2.60
2022-08-11T14:12:49.950Z,2.03
2022-08-11T14:15:22.639Z,2.13
2022-08-11T14:17:54.895Z,2.00
2022-08-11T14:20:39.660Z,2.42
2022-08-11T14:23:11.126Z,2.03
2022-08-11T14:26:01.866Z,2.35
2022-08-11T14:28:36.292Z,1.83
2022-08-11T14:31:08.408Z,2.00
2022-08-11T14:33:59.528Z,2.10
2022-08-11T14:36:28.540Z,2.00
2022-08-11T14:38:55.777Z,2.08
2022-08-11T14:42:09.834Z,2.30
2022-08-11T14:44:50.709Z,2.35
2022-08-11T14:47:23.919Z,2.20
2022-08-11T14:49:57.288Z,2.10
2022-08-11T14:52:38.819Z,1.92
2022-08-11T14:55:26.178Z,2.15
2022-08-11T14:57:54.731Z,2.30
2022-08-11T15:00:24.064Z,2.08
2022-08-11T15:03:09.822Z,2.33
2022-08-11T15:05:58.410Z,1.95
2022-08-11T15:08:47.784Z,2.05
2022-08-11T15:11:39.401Z,1.85
2022-08-11T15:14:08.307Z,1.95
2022-08-11T15:16:56.615Z,2.10
2022-08-11T15:19:25.016Z,2.03
2022-08-11T15:22:10.412Z,2.25
2022-08-11T15:24:37.529Z,2.00
2022-08-11T15:27:33.182Z,2.25
2022-08-11T15:30:32.817Z,2.20
2022-08-11T15:33:22.847Z,2.10
2022-08-11T15:36:09.185Z,2.30
2022-08-11T15:38:42.586Z,2.63
2022-08-11T15:41:29.729Z,2.50
2022-08-11T15:44:15.677Z,2.15
2022-08-11T15:46:49.024Z,2.25
2022-08-11T15:49:24.282Z,2.13
2022-08-11T15:52:16.324Z,2.20
2022-08-11T15:54:44.440Z,2.17
2022-08-11T15:57:39.925Z,2.38
2022-08-11T16:00:26.634Z,2.20
2022-08-11T16:02:56.843Z,2.30
2022-08-11T16:05:45.578Z,2.28
2022-08-11T16:08:16.534Z,2.03
2022-08-11T16:10:59.452Z,2.10
2022-08-11T16:13:28.062Z,2.40
2022-08-11T16:16:14.643Z,2.08
2022-08-11T16:18:47.157Z,2.10
2022-08-11T16:21:34.083Z,2.10
2022-08-11T16:24:05.732Z,2.10
2022-08-11T16:27:08.056Z,2.40
2022-08-11T16:29:23.264Z,2.30
2022-08-11T16:32:11.220Z,2.00
2022-08-11T16:34:57.790Z,2.30
2022-08-11T16:37:43.923Z,2.20
2022-08-11T16:40:12.188Z,2.30
2022-08-11T16:43:04.463Z,2.40
2022-08-11T16:45:57.711Z,2.10
2022-08-11T16:48:35.061Z,2.20
2022-08-11T16:51:04.211Z,2.55
2022-08-11T16:54:04.145Z,2.50
2022-08-11T16:56:27.123Z,2.38
2022-08-11T16:59:14.997Z,2.10
2022-08-11T17:01:54.489Z,2.50
2022-08-11T17:04:53.401Z,2.50
2022-08-11T17:07:43.009Z,2.47
2022-08-11T17:10:51.893Z,2.15
2022-08-11T17:13:25.774Z,2.58
2022-08-11T17:16:10.042Z,2.30
2022-08-11T17:18:51.405Z,2.55
2022-08-11T17:21:26.441Z,2.70
2022-08-11T17:24:08.808Z,2.42
2022-08-11T17:26:57.142Z,2.78
2022-08-11T17:29:28.906Z,2.47
2022-08-11T17:32:15.493Z,3.00
2022-08-11T17:35:06.404Z,2.20
2022-08-11T17:37:35.084Z,2.42
2022-08-11T17:40:05.789Z,2.30
2022-08-11T17:42:52.670Z,2.22
2022-08-11T17:45:39.906Z,2.50
2022-08-11T17:48:26.372Z,2.50
2022-08-11T17:51:09.083Z,2.53
2022-08-11T17:54:17.078Z,2.42
2022-08-11T17:57:06.001Z,2.20
2022-08-11T17:59:52.067Z,2.50
2022-08-11T18:02:40.018Z,2.72
2022-08-11T18:05:12.815Z,2.55
2022-08-11T18:08:01.235Z,2.30
2022-08-11T18:10:48.518Z,2.30
2022-08-11T18:13:36.205Z,2.30
2022-08-11T18:16:25.517Z,2.22
2022-08-11T18:19:13.615Z,2.20
2022-08-11T18:22:14.710Z,2.38
2022-08-11T18:25:04.336Z,2.30
2022-08-11T18:27:51.277Z,2.15
2022-08-11T18:30:37.185Z,2.58
2022-08-11T18:36:39.916Z,2.30
2022-08-11T18:39:28.294Z,2.37
2022-08-11T18:42:28.752Z,2.30
2022-08-11T18:45:18.091Z,2.37
2022-08-11T18:48:06.361Z,2.73
2022-08-11T18:50:59.326Z,2.40
2022-08-11T18:54:01.785Z,2.40
2022-08-11T18:56:51.266Z,2.30
2022-08-11T18:59:39.346Z,2.40
2022-08-11T19:02:25.779Z,2.30
2022-08-11T19:05:11.911Z,2.50
2022-08-11T19:07:58.263Z,2.20
2022-08-11T19:10:44.181Z,2.40
2022-08-11T19:13:30.162Z,2.10
2022-08-11T19:16:16.505Z,2.60
2022-08-11T19:19:03.039Z,2.23
2022-08-11T19:21:49.310Z,2.33
2022-08-11T19:24:35.275Z,2.30
2022-08-11T19:27:22.087Z,2.60
2022-08-11T19:30:12.866Z,2.17
2022-08-11T19:32:59.874Z,2.30
2022-08-11T19:35:46.250Z,2.10
2022-08-11T19:38:32.237Z,2.40
2022-08-11T19:41:51.786Z,2.60
2022-08-11T19:44:26.317Z,2.90
2022-08-11T19:47:12.346Z,2.90
2022-08-11T19:49:59.255Z,2.40
2022-08-11T19:52:45.131Z,2.73
2022-08-11T19:55:31.323Z,2.83
2022-08-11T19:58:17.470Z,2.47
2022-08-11T20:01:03.207Z,2.50
2022-08-11T20:03:48.978Z,2.40
2022-08-11T20:06:35.584Z,2.50
2022-08-11T20:09:21.903Z,2.50
2022-08-11T20:12:09.480Z,3.00
2022-08-11T20:14:57.462Z,2.70
2022-08-11T20:17:44.910Z,2.53
2022-08-11T20:20:31.817Z,2.50
2022-08-11T20:23:20.247Z,2.50
2022-08-11T20:26:29.644Z,2.63
2022-08-11T20:29:13.141Z,3.07
2022-08-11T20:31:59.940Z,2.70
2022-08-11T20:34:45.933Z,2.83
2022-08-11T20:37:32.915Z,2.60
2022-08-11T20:40:23.478Z,3.10
2022-08-11T20:44:07.128Z,2.03
2022-08-11T20:46:16.094Z,2.57
2022-08-11T20:49:03.264Z,2.67
2022-08-11T20:51:50.691Z,3.10
2022-08-11T20:57:59.451Z,2.90
2022-08-11T21:00:51.353Z,2.53
2022-08-11T21:03:44.897Z,2.53
2022-08-11T21:06:46.168Z,2.77
2022-08-11T21:09:58.792Z,2.60
2022-08-11T21:12:38.962Z,3.00
2022-08-11T21:15:39.019Z,2.73
2022-08-11T21:18:33.691Z,2.93
2022-08-11T21:21:23.511Z,2.97
2022-08-11T21:24:10.659Z,2.73
2022-08-11T21:27:03.597Z,2.73
2022-08-11T21:29:50.040Z,2.60
2022-08-11T21:32:36.614Z,2.70
2022-08-11T21:35:22.504Z,2.80
2022-08-11T21:38:09.535Z,2.60
2022-08-11T21:40:55.310Z,2.73
2022-08-11T21:43:41.151Z,2.30
2022-08-11T21:46:27.572Z,3.00
2022-08-11T21:49:20.657Z,3.03
2022-08-11T21:52:06.606Z,3.10
2022-08-11T21:54:52.403Z,2.97
2022-08-11T21:57:47.689Z,3.20
2022-08-11T22:00:34.231Z,2.87
2022-08-11T22:03:20.243Z,3.20
2022-08-11T22:06:06.609Z,3.23
2022-08-11T22:08:52.835Z,2.90
2022-08-11T22:11:39.613Z,2.87
2022-08-11T22:14:25.602Z,3.07
2022-08-11T22:17:11.365Z,2.80
2022-08-11T22:19:59.720Z,3.03
2022-08-11T22:22:51.971Z,3.30
2022-08-11T22:25:50.754Z,2.80
2022-08-11T22:28:37.607Z,2.90
2022-08-11T22:31:24.103Z,3.00
2022-08-11T22:34:10.072Z,3.30
2022-08-11T22:36:56.626Z,2.57
2022-08-11T22:39:42.691Z,3.07
2022-08-11T22:42:33.251Z,2.90
2022-08-11T22:45:19.784Z,2.97
2022-08-11T22:48:06.742Z,3.20
2022-08-11T22:50:53.165Z,2.47
2022-08-11T22:53:58.115Z,2.77
2022-08-11T22:56:45.133Z,2.70
2022-08-11T22:59:30.957Z,2.50
2022-08-11T23:02:16.945Z,2.60
2022-08-11T23:05:02.850Z,2.70
2022-08-11T23:07:51.231Z,2.47
2022-08-11T23:10:38.402Z,2.90
2022-08-11T23:13:24.824Z,2.50
2022-08-11T23:16:11.429Z,2.40
2022-08-11T23:18:58.384Z,2.80
2022-08-11T23:21:45.053Z,2.10
2022-08-11T23:24:31.456Z,2.80
2022-08-11T23:27:18.025Z,2.67
2022-08-11T23:30:04.466Z,2.53
2022-08-11T23:32:50.940Z,2.90
2022-08-11T23:35:51.768Z,2.73
2022-08-11T23:38:42.271Z,2.80
2022-08-11T23:41:28.282Z,3.20
2022-08-11T23:44:14.737Z,2.93
2022-08-11T23:47:01.067Z,3.13
2022-08-11T23:49:46.999Z,2.57
2022-08-11T23:52:33.092Z,2.60
2022-08-11T23:55:19.229Z,2.83
2022-08-11T23:58:05.509Z,3.00
